This is the latest recevied weather packets stored in our database for station/object N6RDS. If no packets are shown the sender has not sent any weather packets the latest 10 day(s).
| Time | Temp. | Humidity | Pressure | Rain* | Wind** | Luminosity | Snow |
|---|---|---|---|---|---|---|---|
| 1777820697 | 16.11° C | 39% | 1027.1 hPa | 0 mm | - | 307 W/m² | - |
| 1777820393 | 15° C | 43% | 1027 hPa | 0 mm | - | 299 W/m² | - |
| 1777820090 | 14.44° C | 45% | 1027.2 hPa | 0 mm | - | 223 W/m² | - |
| 1777819788 | 13.33° C | 48% | 1027.2 hPa | 0 mm | - | 206 W/m² | - |
| 1777819485 | 11.67° C | 51% | 1027.1 hPa | 0 mm | - | 239 W/m² | - |
| 1777819183 | 10° C | 55% | 1027.1 hPa | 0 mm | - | 223 W/m² | - |
| 1777818880 | 7.78° C | 61% | 1027 hPa | 0 mm | - | 175 W/m² | - |
| 1777818576 | 7.22° C | 64% | 1026.9 hPa | 0 mm | - | 72 W/m² | - |
| 1777818274 | 7.22° C | 63% | 1026.8 hPa | 0 mm | - | 49 W/m² | - |
| 1777817969 | 6.67° C | 64% | 1026.9 hPa | 0 mm | - | 55 W/m² | - |
| 1777817667 | 6.67° C | 65% | 1027 hPa | 0 mm | - | 58 W/m² | - |
| 1777817363 | 6.67° C | 64% | 1026.8 hPa | 0 mm | - | 55 W/m² | - |
| 1777817061 | 6.11° C | 64% | 1026.8 hPa | 0 mm | - | 45 W/m² | - |
| 1777816756 | 6.11° C | 64% | 1027 hPa | 0 mm | - | 46 W/m² | - |
| 1777816455 | 6.11° C | 64% | 1027.1 hPa | 0 mm | - | 41 W/m² | - |
| 1777816151 | 5.56° C | 62% | 1027.1 hPa | 0 mm | - | 34 W/m² | - |
| 1777815849 | 5.56° C | 63% | 1027 hPa | 0 mm | - | 29 W/m² | - |
| 1777815546 | 5.56° C | 62% | 1026.9 hPa | 0 mm | - | 28 W/m² | - |
| 1777815244 | 5.56° C | 62% | 1026.9 hPa | 0 mm | - | 31 W/m² | - |
| 1777814939 | 5° C | 62% | 1026.8 hPa | 0 mm | - | 37 W/m² | - |
| 1777814636 | 4.44° C | 64% | 1026.9 hPa | 0 mm | - | 30 W/m² | - |
| 1777814333 | 4.44° C | 65% | 1026.8 hPa | 0 mm | - | 25 W/m² | - |
| 1777814029 | 3.89° C | 66% | 1026.6 hPa | 0 mm | - | 20 W/m² | - |
| 1777813727 | 3.89° C | 66% | 1026.8 hPa | 0 mm | - | 17 W/m² | - |
| 1777813424 | 3.33° C | 66% | 1026.6 hPa | 0 mm | - | 14 W/m² | - |
* Rain latest hour (hover to see other rain measurements)
** Current wind speed in m/s (hover to see current wind gust speed)